Time;durP1;ratioP1;P1;durP2;ratioP2;P2;SDS_P1;SDS_P2;PMS_P1;PMS_P2;Temp;Humidity;BMP_temperature;BMP_pressure;BME280_temperature;BME280_humidity;BME280_pressure;Samples;Min_cycle;Max_cycle;Signal;HPM_P1;HPM_P2
2021/10/24 00:00:10;;;;;;;11.50;4.40;;;;;;;5.52;100.00;100124.75;5008927;28;20040;-57
2021/10/24 00:02:36;;;;;;;7.87;2.97;;;;;;;5.44;100.00;100123.69;5009390;28;20030;-56
2021/10/24 00:05:03;;;;;;;3.87;3.17;;;;;;;5.45;100.00;100121.22;5013218;28;20033;-54
2021/10/24 00:07:29;;;;;;;5.87;3.20;;;;;;;5.44;100.00;100118.63;5006907;28;20026;-55
2021/10/24 00:09:54;;;;;;;5.87;2.73;;;;;;;5.37;100.00;100115.06;5011762;28;20033;-56
2021/10/24 00:12:20;;;;;;;4.93;2.57;;;;;;;5.39;100.00;100115.09;5004041;28;20069;-58
2021/10/24 00:14:45;;;;;;;7.47;2.90;;;;;;;5.33;100.00;100123.44;5014472;28;20065;-55
2021/10/24 00:17:11;;;;;;;7.90;3.13;;;;;;;5.39;100.00;100118.50;5011643;28;20033;-55
2021/10/24 00:19:37;;;;;;;3.77;2.90;;;;;;;5.43;100.00;100120.28;5014841;28;20084;-57
2021/10/24 00:22:05;;;;;;;5.37;3.70;;;;;;;5.28;100.00;100125.00;5006991;28;20072;-57
2021/10/24 00:24:31;;;;;;;6.67;3.43;;;;;;;5.05;100.00;100120.97;5003349;28;20060;-58
2021/10/24 00:26:57;;;;;;;5.33;3.40;;;;;;;4.91;100.00;100117.22;5008110;28;20061;-59
2021/10/24 00:29:22;;;;;;;5.43;3.73;;;;;;;4.79;100.00;100117.75;5010637;28;20025;-58
2021/10/24 00:31:48;;;;;;;6.57;3.40;;;;;;;4.74;100.00;100129.47;5016699;28;20396;-58
2021/10/24 00:34:14;;;;;;;3.27;2.90;;;;;;;4.70;100.00;100137.81;5005705;28;20034;-55
2021/10/24 00:36:40;;;;;;;4.00;2.87;;;;;;;4.65;100.00;100133.41;5003761;28;20030;-60
2021/10/24 00:39:05;;;;;;;4.13;2.93;;;;;;;4.54;100.00;100139.03;5008245;28;20433;-56
2021/10/24 00:41:32;;;;;;;4.80;2.90;;;;;;;4.47;100.00;100129.53;5010102;28;20021;-57
2021/10/24 00:43:58;;;;;;;6.67;2.97;;;;;;;4.40;100.00;100127.63;5010322;28;20037;-57
2021/10/24 00:46:24;;;;;;;5.13;3.27;;;;;;;4.25;100.00;100127.16;5012485;28;20026;-54
2021/10/24 00:48:49;;;;;;;5.00;3.20;;;;;;;4.13;100.00;100134.41;5010535;28;20522;-54
2021/10/24 00:51:15;;;;;;;3.70;3.13;;;;;;;4.03;100.00;100129.88;5011548;28;20480;-54
2021/10/24 00:53:41;;;;;;;4.20;3.47;;;;;;;3.96;100.00;100125.41;5005549;28;20411;-58
2021/10/24 00:56:08;;;;;;;7.07;4.53;;;;;;;3.84;100.00;100118.28;5015274;28;20049;-57
2021/10/24 00:58:34;;;;;;;10.83;5.37;;;;;;;3.86;100.00;100131.03;5016032;28;20388;-59
2021/10/24 01:01:01;;;;;;;9.90;5.07;;;;;;;3.75;100.00;100132.34;5007771;28;20042;-57
2021/10/24 01:03:26;;;;;;;4.63;3.63;;;;;;;3.66;100.00;100132.91;5002609;28;20060;-58
2021/10/24 01:05:52;;;;;;;3.63;3.30;;;;;;;3.55;100.00;100130.03;5008920;28;20672;-58
2021/10/24 01:08:17;;;;;;;5.73;3.60;;;;;;;3.46;100.00;100133.94;5008039;28;20048;-57
2021/10/24 01:10:43;;;;;;;4.87;3.87;;;;;;;3.38;100.00;100136.22;5008227;28;20065;-57
2021/10/24 01:13:08;;;;;;;6.03;3.77;;;;;;;3.32;100.00;100130.06;5007181;28;20330;-58
2021/10/24 01:15:34;;;;;;;6.40;3.50;;;;;;;3.28;100.00;100141.75;5008921;28;20044;-59
2021/10/24 01:17:59;;;;;;;5.27;3.60;;;;;;;3.16;100.00;100131.22;5010220;28;20404;-56
2021/10/24 01:20:28;;;;;;;4.70;3.70;;;;;;;3.12;100.00;100125.19;5012816;28;20061;-58
2021/10/24 01:22:53;;;;;;;7.93;3.97;;;;;;;3.05;100.00;100130.84;5010081;28;20030;-58
2021/10/24 01:25:20;;;;;;;6.80;4.07;;;;;;;2.98;100.00;100133.97;5015980;28;20095;-57
2021/10/24 01:27:46;;;;;;;27.10;10.87;;;;;;;3.02;100.00;100145.06;5013042;28;20037;-56
2021/10/24 01:30:12;;;;;;;22.30;9.13;;;;;;;2.96;100.00;100137.25;5008403;28;20072;-57
2021/10/24 01:32:38;;;;;;;21.50;10.90;;;;;;;2.92;100.00;100138.84;5010714;28;20423;-57
2021/10/24 01:35:05;;;;;;;16.83;6.27;;;;;;;2.93;100.00;100132.09;5015896;28;20109;-55
2021/10/24 01:37:49;;;;;;;7.63;3.93;;;;;;;3.12;100.00;100131.91;5019860;28;20022;-57
2021/10/24 01:40:16;;;;;;;5.13;2.93;;;;;;;3.12;100.00;100142.06;5005612;28;21124;-57
2021/10/24 01:42:50;;;;;;;5.03;3.03;;;;;;;3.18;100.00;100135.50;5007428;28;20037;-60
2021/10/24 01:45:17;;;;;;;6.67;3.30;;;;;;;3.26;100.00;100137.47;5011090;28;20030;-56
2021/10/24 01:47:42;;;;;;;4.47;3.03;;;;;;;3.26;100.00;100138.34;5015148;28;20030;-59
2021/10/24 01:50:08;;;;;;;3.37;3.07;;;;;;;3.17;100.00;100146.47;5013745;28;20112;-56
2021/10/24 01:52:39;;;;;;;6.67;3.30;;;;;;;3.11;100.00;100142.84;5007086;28;20081;-56
2021/10/24 01:55:07;;;;;;;6.60;3.10;;;;;;;3.07;100.00;100148.63;5008507;28;20054;-57
2021/10/24 01:57:33;;;;;;;5.87;4.00;;;;;;;3.06;100.00;100140.16;5009950;28;20029;-57
2021/10/24 01:59:58;;;;;;;8.27;3.97;;;;;;;2.99;100.00;100144.97;5012423;28;20040;-58
2021/10/24 02:02:24;;;;;;;5.63;3.80;;;;;;;2.91;100.00;100147.22;5010613;28;20037;-54
2021/10/24 02:04:49;;;;;;;5.10;3.53;;;;;;;2.88;100.00;100146.25;5016400;28;20042;-58
2021/10/24 02:07:14;;;;;;;5.73;3.23;;;;;;;2.78;100.00;100136.59;5008764;28;20044;-55
2021/10/24 02:09:40;;;;;;;4.37;3.27;;;;;;;2.82;100.00;100157.03;5007463;28;20034;-55
2021/10/24 02:12:05;;;;;;;5.53;3.53;;;;;;;2.74;100.00;100146.63;5014938;28;20044;-55
2021/10/24 02:14:31;;;;;;;4.17;3.50;;;;;;;2.72;100.00;100147.34;5019120;28;20148;-55
2021/10/24 02:16:56;;;;;;;6.10;3.23;;;;;;;2.67;100.00;100151.41;5018686;28;20060;-56
2021/10/24 02:19:22;;;;;;;7.43;4.50;;;;;;;2.61;100.00;100136.84;5006907;28;20022;-55
2021/10/24 02:21:47;;;;;;;8.13;4.57;;;;;;;2.54;100.00;100132.38;5008141;28;20096;-55
2021/10/24 02:24:12;;;;;;;10.27;3.40;;;;;;;2.50;100.00;100122.97;5012807;28;20112;-57
2021/10/24 02:26:38;;;;;;;6.10;3.23;;;;;;;2.53;100.00;100125.59;5016594;28;20033;-59
2021/10/24 02:29:03;;;;;;;5.60;2.77;;;;;;;2.62;100.00;100122.53;5017419;28;20029;-59
2021/10/24 02:31:30;;;;;;;6.13;3.10;;;;;;;2.57;100.00;100122.38;5012947;28;20037;-57
2021/10/24 02:33:56;;;;;;;5.43;2.80;;;;;;;2.59;100.00;100124.97;5012780;28;20022;-59
2021/10/24 02:36:21;;;;;;;8.03;3.70;;;;;;;2.63;100.00;100121.72;5006032;28;20029;-56
2021/10/24 02:38:46;;;;;;;5.57;3.53;;;;;;;2.59;100.00;100123.28;5006752;28;20033;-59
2021/10/24 02:41:12;;;;;;;4.43;3.60;;;;;;;2.59;100.00;100119.91;5010060;28;20056;-56
2021/10/24 02:43:37;;;;;;;4.93;3.23;;;;;;;2.51;100.00;100123.78;5007743;28;20045;-57
2021/10/24 02:46:03;;;;;;;4.87;3.07;;;;;;;2.46;100.00;100120.25;5007428;28;20045;-58
2021/10/24 02:48:29;;;;;;;4.80;2.80;;;;;;;2.50;100.00;100122.97;5007974;28;20029;-59
2021/10/24 02:50:54;;;;;;;6.57;2.97;;;;;;;2.57;100.00;100121.50;5008528;28;20025;-56
2021/10/24 02:53:20;;;;;;;3.67;2.97;;;;;;;2.48;100.00;100122.03;5009033;28;20071;-58
2021/10/24 02:55:45;;;;;;;2.97;2.70;;;;;;;2.49;100.00;100121.22;5005367;28;20046;-57
2021/10/24 02:58:10;;;;;;;3.37;2.60;;;;;;;2.45;100.00;100109.25;5005257;28;20083;-59
2021/10/24 03:00:36;;;;;;;3.60;2.37;;;;;;;2.47;100.00;100109.31;5006010;28;20033;-57
2021/10/24 03:03:01;;;;;;;2.77;2.40;;;;;;;2.36;100.00;100119.03;5007396;28;20022;-57
2021/10/24 03:05:27;;;;;;;4.83;2.67;;;;;;;2.32;100.00;100113.81;5007645;28;20048;-55
2021/10/24 03:07:52;;;;;;;3.20;2.47;;;;;;;2.21;100.00;100120.97;5007163;28;20034;-58
2021/10/24 03:10:17;;;;;;;6.13;2.20;;;;;;;2.25;100.00;100120.28;5011468;28;20034;-54
2021/10/24 03:12:43;;;;;;;4.67;3.27;;;;;;;2.13;100.00;100129.94;5011162;28;20027;-59
2021/10/24 03:15:08;;;;;;;5.37;2.10;;;;;;;2.01;100.00;100135.41;5010392;28;20448;-54
2021/10/24 03:17:34;;;;;;;8.50;3.03;;;;;;;1.98;100.00;100129.38;5005326;28;20547;-54
2021/10/24 03:20:00;;;;;;;4.67;3.77;;;;;;;1.91;100.00;100124.88;5009386;28;20041;-59
2021/10/24 03:22:25;;;;;;;8.37;2.70;;;;;;;1.88;100.00;100128.13;5012155;28;20362;-57
2021/10/24 03:24:50;;;;;;;5.03;3.03;;;;;;;1.85;100.00;100130.56;5006362;28;20034;-57
2021/10/24 03:27:16;;;;;;;5.00;2.53;;;;;;;1.83;100.00;100135.53;5002665;28;20121;-58
2021/10/24 03:29:41;;;;;;;2.87;2.30;;;;;;;1.77;100.00;100139.50;5009096;28;20034;-59
2021/10/24 03:32:07;;;;;;;4.63;2.57;;;;;;;1.73;100.00;100133.47;5018150;28;20127;-56
2021/10/24 03:34:32;;;;;;;2.90;2.60;;;;;;;1.69;100.00;100118.97;5009016;28;20034;-60
2021/10/24 03:36:57;;;;;;;3.90;2.40;;;;;;;1.70;100.00;100124.88;5009159;28;20465;-58
2021/10/24 03:39:23;;;;;;;5.60;2.63;;;;;;;1.66;100.00;100131.47;5009854;28;20029;-59
2021/10/24 03:41:48;;;;;;;4.00;2.63;;;;;;;1.66;100.00;100130.59;5013166;28;20475;-59
2021/10/24 03:44:14;;;;;;;3.63;2.47;;;;;;;1.59;100.00;100133.69;5016972;28;20057;-60
2021/10/24 03:46:39;;;;;;;2.60;1.90;;;;;;;1.57;100.00;100133.63;5007637;28;20044;-59
2021/10/24 03:49:05;;;;;;;4.13;2.03;;;;;;;1.56;100.00;100134.44;5006330;28;20041;-59
2021/10/24 03:51:30;;;;;;;5.20;2.30;;;;;;;1.52;100.00;100137.66;5006447;28;20034;-60
2021/10/24 03:53:56;;;;;;;6.70;2.73;;;;;;;1.49;100.00;100141.69;5008073;28;20025;-59
2021/10/24 03:56:21;;;;;;;6.17;2.70;;;;;;;1.48;100.00;100135.78;5007296;28;20492;-59
2021/10/24 03:58:46;;;;;;;3.43;2.67;;;;;;;1.43;100.00;100142.31;5018471;28;20121;-58
2021/10/24 04:01:12;;;;;;;2.87;2.57;;;;;;;1.36;100.00;100137.78;5015460;28;20067;-58
2021/10/24 04:03:37;;;;;;;5.17;3.00;;;;;;;1.33;100.00;100136.00;5003709;28;20462;-59
2021/10/24 04:06:05;;;;;;;3.63;2.60;;;;;;;1.31;100.00;100134.25;5008175;28;20030;-58
2021/10/24 04:08:31;;;;;;;3.70;1.97;;;;;;;1.24;100.00;100134.75;5012078;28;20022;-57
2021/10/24 04:10:57;;;;;;;5.00;2.50;;;;;;;1.20;100.00;100132.91;5011846;28;20045;-58
2021/10/24 04:13:23;;;;;;;6.60;2.47;;;;;;;1.19;100.00;100126.16;5011315;28;20041;-62
2021/10/24 04:15:48;;;;;;;5.87;3.40;;;;;;;1.16;100.00;100116.75;5009896;28;20029;-56
2021/10/24 04:18:14;;;;;;;4.37;2.53;;;;;;;1.15;100.00;100120.06;5009601;28;20114;-57
2021/10/24 04:20:39;;;;;;;5.07;2.67;;;;;;;1.17;100.00;100122.69;5013966;28;20511;-58
2021/10/24 04:23:05;;;;;;;3.67;3.00;;;;;;;1.21;100.00;100127.94;5009453;28;20044;-59
2021/10/24 04:25:30;;;;;;;4.97;2.47;;;;;;;1.17;100.00;100121.03;5015974;28;20026;-58
2021/10/24 04:27:56;;;;;;;10.27;3.23;;;;;;;1.12;100.00;100119.97;5010282;28;20026;-57
2021/10/24 04:30:21;;;;;;;6.23;3.50;;;;;;;1.15;100.00;100125.13;5006091;28;20132;-59
2021/10/24 04:32:47;;;;;;;6.03;4.07;;;;;;;1.15;100.00;100114.16;5004910;28;20034;-58
2021/10/24 04:35:13;;;;;;;7.27;4.30;;;;;;;1.09;100.00;100118.97;5010163;28;20040;-59
2021/10/24 04:37:40;;;;;;;5.60;3.93;;;;;;;1.09;100.00;100118.97;5017060;28;20434;-59
2021/10/24 04:40:06;;;;;;;6.93;3.40;;;;;;;1.04;100.00;100120.44;5008726;28;20026;-56
2021/10/24 04:42:33;;;;;;;6.40;3.30;;;;;;;1.00;100.00;100127.03;5007338;28;20140;-59
2021/10/24 04:44:58;;;;;;;4.20;3.37;;;;;;;0.97;100.00;100123.50;5001543;28;20042;-58
2021/10/24 04:47:24;;;;;;;4.47;3.23;;;;;;;0.98;100.00;100125.25;5011953;28;20124;-59
2021/10/24 04:49:49;;;;;;;6.23;3.03;;;;;;;0.98;100.00;100121.03;5013542;28;20023;-59
2021/10/24 04:52:15;;;;;;;4.90;2.40;;;;;;;0.95;100.00;100120.03;5009842;28;20037;-59
2021/10/24 04:54:41;;;;;;;6.43;2.33;;;;;;;1.02;100.00;100122.03;5006767;28;20137;-59
2021/10/24 04:57:06;;;;;;;5.47;3.47;;;;;;;0.98;100.00;100128.59;5004384;28;20034;-58
2021/10/24 04:59:32;;;;;;;6.53;2.27;;;;;;;0.93;100.00;100129.22;5012049;28;20509;-60
2021/10/24 05:01:59;;;;;;;6.77;2.80;;;;;;;0.95;100.00;100135.19;5015946;28;20135;-58
2021/10/24 05:04:24;;;;;;;4.63;2.80;;;;;;;0.90;100.00;100128.28;5015475;28;20029;-57
2021/10/24 05:06:50;;;;;;;5.87;2.80;;;;;;;0.84;100.00;100125.50;5018140;28;20088;-60
2021/10/24 05:09:16;;;;;;;4.07;2.47;;;;;;;0.85;100.00;100128.88;5012420;28;20040;-59
2021/10/24 05:11:41;;;;;;;4.07;2.50;;;;;;;0.82;100.00;100131.25;5014350;28;20030;-59
2021/10/24 05:14:07;;;;;;;2.80;2.50;;;;;;;0.81;100.00;100132.91;5023577;28;20149;-59
2021/10/24 05:16:33;;;;;;;2.97;2.60;;;;;;;0.81;100.00;100130.41;5018569;28;20032;-60
2021/10/24 05:18:59;;;;;;;5.20;3.00;;;;;;;0.78;100.00;100132.78;5014592;28;20049;-58
2021/10/24 05:21:24;;;;;;;6.30;2.50;;;;;;;0.81;100.00;100135.44;5009954;28;20030;-59
2021/10/24 05:23:50;;;;;;;2.67;1.97;;;;;;;0.79;100.00;100128.63;5013479;28;20065;-58
2021/10/24 05:26:15;;;;;;;3.93;2.77;;;;;;;0.84;100.00;100139.78;5013718;28;20049;-59
2021/10/24 05:28:40;;;;;;;6.93;3.20;;;;;;;0.87;100.00;100143.31;5017877;28;20041;-58
2021/10/24 05:31:06;;;;;;;7.40;3.47;;;;;;;0.89;100.00;100146.75;5016753;28;20034;-58
2021/10/24 05:33:31;;;;;;;5.70;3.73;;;;;;;0.91;100.00;100150.22;5015424;28;20037;-59
2021/10/24 05:35:57;;;;;;;5.93;3.03;;;;;;;0.87;100.00;100158.44;5014583;28;20132;-58
2021/10/24 05:38:22;;;;;;;7.47;3.80;;;;;;;0.85;100.00;100151.59;5015323;28;20086;-57
2021/10/24 05:40:49;;;;;;;6.73;3.50;;;;;;;0.99;100.00;100152.19;5017549;28;20377;-58
2021/10/24 05:43:15;;;;;;;5.70;4.43;;;;;;;0.98;100.00;100148.78;5021638;28;20049;-59
2021/10/24 05:45:44;;;;;;;4.90;2.20;;;;;;;1.09;100.00;100166.94;5021823;28;20049;-59
2021/10/24 05:48:11;;;;;;;5.60;3.00;;;;;;;1.09;100.00;100170.34;5009071;28;20435;-60
2021/10/24 05:50:36;;;;;;;3.33;2.50;;;;;;;1.09;100.00;100175.41;5016618;28;20041;-56
2021/10/24 05:53:02;;;;;;;6.20;3.60;;;;;;;1.08;100.00;100167.75;5017592;28;20033;-59
2021/10/24 05:55:27;;;;;;;4.50;2.40;;;;;;;1.13;100.00;100177.25;5020796;28;20054;-58
2021/10/24 05:57:52;;;;;;;4.10;2.80;;;;;;;1.19;100.00;100179.19;5016373;28;20033;-59
2021/10/24 06:00:18;;;;;;;4.90;2.83;;;;;;;1.24;100.00;100180.22;5008699;28;20476;-56
2021/10/24 06:02:43;;;;;;;6.00;2.50;;;;;;;1.28;100.00;100182.09;5016290;28;20029;-59
2021/10/24 06:05:08;;;;;;;5.07;2.93;;;;;;;1.31;100.00;100180.56;5019429;28;20060;-57
2021/10/24 06:07:35;;;;;;;8.33;3.00;;;;;;;1.46;100.00;100177.81;5015643;28;20029;-57
2021/10/24 06:10:06;;;;;;;5.53;2.70;;;;;;;1.55;100.00;100182.38;5017991;28;20080;-58
2021/10/24 06:15:02;;;;;;;9.83;5.60;;;;;;;1.77;100.00;100187.53;5007024;28;20046;-57
2021/10/24 06:17:28;;;;;;;5.17;2.70;;;;;;;1.85;100.00;100196.28;5008856;28;20045;-60
2021/10/24 06:19:53;;;;;;;5.70;2.53;;;;;;;1.94;100.00;100188.22;5017398;28;20034;-58
2021/10/24 06:22:19;;;;;;;14.57;6.77;;;;;;;1.99;100.00;100189.25;5015070;28;20026;-56
2021/10/24 06:24:44;;;;;;;14.87;5.43;;;;;;;2.05;100.00;100202.13;5010247;28;20038;-55
2021/10/24 06:27:10;;;;;;;13.27;6.10;;;;;;;2.22;100.00;100201.13;5020969;28;20452;-58
2021/10/24 06:29:35;;;;;;;16.37;6.87;;;;;;;2.32;100.00;100198.19;5010315;28;20037;-58
2021/10/24 06:32:01;;;;;;;10.30;5.83;;;;;;;2.37;100.00;100201.75;5013402;28;20281;-59
2021/10/24 06:34:26;;;;;;;12.50;6.13;;;;;;;2.52;100.00;100204.84;5015536;28;20118;-59
2021/10/24 06:36:52;;;;;;;14.17;5.97;;;;;;;2.70;100.00;100207.22;5014933;28;20037;-59
2021/10/24 06:39:17;;;;;;;7.43;2.80;;;;;;;2.71;100.00;100212.34;5012621;28;20023;-58
2021/10/24 06:41:43;;;;;;;5.60;3.30;;;;;;;2.89;100.00;100213.81;5013631;28;20381;-56
2021/10/24 06:44:08;;;;;;;3.20;2.63;;;;;;;2.97;100.00;100215.00;5005246;28;20379;-58
2021/10/24 06:46:34;;;;;;;8.37;3.63;;;;;;;3.14;100.00;100222.38;5005567;28;20038;-59
2021/10/24 06:49:00;;;;;;;4.17;3.43;;;;;;;3.33;100.00;100223.03;5011420;28;20038;-59
2021/10/24 06:51:25;;;;;;;4.47;3.10;;;;;;;3.45;100.00;100223.44;5007821;28;20026;-60
2021/10/24 06:53:50;;;;;;;6.20;2.90;;;;;;;3.52;100.00;100215.28;5003182;28;20060;-59
2021/10/24 06:56:16;;;;;;;4.03;2.90;;;;;;;3.56;100.00;100217.97;5002391;28;20057;-60
2021/10/24 06:58:41;;;;;;;4.67;3.03;;;;;;;3.72;100.00;100214.28;5004890;28;20473;-59
2021/10/24 07:01:06;;;;;;;4.50;3.00;;;;;;;3.82;100.00;100223.06;5005685;28;20113;-59
2021/10/24 07:03:32;;;;;;;4.50;2.87;;;;;;;4.04;100.00;100222.94;5003414;28;20022;-58
2021/10/24 07:05:57;;;;;;;8.53;3.83;;;;;;;4.08;100.00;100225.63;5001477;28;20537;-60
2021/10/24 07:08:23;;;;;;;12.47;6.33;;;;;;;4.17;100.00;100230.13;5007837;28;20037;-56
2021/10/24 07:10:48;;;;;;;12.13;5.27;;;;;;;4.41;100.00;100228.34;5006328;28;20026;-56
2021/10/24 07:13:13;;;;;;;11.53;5.73;;;;;;;4.65;100.00;100230.78;5003990;28;20508;-56
2021/10/24 07:15:39;;;;;;;10.00;5.63;;;;;;;4.69;100.00;100226.66;5005069;28;20037;-57
2021/10/24 07:18:04;;;;;;;8.70;4.07;;;;;;;4.93;100.00;100232.47;5011071;28;20034;-57
2021/10/24 07:20:30;;;;;;;13.37;5.10;;;;;;;5.02;100.00;100232.72;5005811;28;20022;-56
2021/10/24 07:22:55;;;;;;;6.10;4.40;;;;;;;5.23;100.00;100228.25;5003361;28;20037;-58
2021/10/24 07:25:21;;;;;;;7.93;4.13;;;;;;;5.25;100.00;100231.72;5005696;28;20631;-59
2021/10/24 07:27:46;;;;;;;6.60;3.47;;;;;;;5.45;100.00;100228.03;5005657;28;20088;-59
2021/10/24 07:30:12;;;;;;;11.50;5.83;;;;;;;5.64;100.00;100231.06;5006842;28;20085;-60
2021/10/24 07:32:38;;;;;;;10.53;4.70;;;;;;;5.82;100.00;100236.63;5004289;28;20030;-59
2021/10/24 07:35:04;;;;;;;6.87;4.30;;;;;;;5.88;100.00;100237.69;5006866;28;20029;-56
2021/10/24 07:37:30;;;;;;;6.97;4.10;;;;;;;6.05;100.00;100224.50;5008616;28;20108;-57
2021/10/24 07:39:55;;;;;;;8.43;4.57;;;;;;;6.20;100.00;100230.81;5009549;28;20029;-58
2021/10/24 07:42:20;;;;;;;5.17;4.13;;;;;;;6.21;100.00;100221.50;5003264;28;20037;-59
2021/10/24 07:44:46;;;;;;;4.77;2.90;;;;;;;6.29;100.00;100225.09;5010090;28;20029;-60
2021/10/24 07:47:12;;;;;;;7.87;3.97;;;;;;;6.42;100.00;100227.97;5007085;28;20030;-59
2021/10/24 07:49:38;;;;;;;6.73;4.50;;;;;;;6.50;100.00;100224.72;5004046;28;20029;-59
2021/10/24 07:52:04;;;;;;;8.87;3.70;;;;;;;6.64;100.00;100231.00;5005022;28;20057;-59
2021/10/24 07:54:29;;;;;;;6.53;3.87;;;;;;;6.69;100.00;100229.41;5003117;28;20543;-59
2021/10/24 07:56:54;;;;;;;3.63;3.10;;;;;;;6.64;100.00;100236.97;5006028;28;20488;-60
2021/10/24 07:59:20;;;;;;;7.37;3.50;;;;;;;6.66;100.00;100232.75;5001805;28;20025;-59
2021/10/24 08:01:46;;;;;;;6.27;3.73;;;;;;;6.71;100.00;100232.84;5002316;28;20068;-60
2021/10/24 08:04:12;;;;;;;8.53;3.90;;;;;;;6.89;100.00;100228.16;5012637;28;20087;-58
2021/10/24 08:06:38;;;;;;;5.47;3.43;;;;;;;7.03;100.00;100234.41;5010242;28;20104;-57
2021/10/24 08:09:07;;;;;;;3.67;3.37;;;;;;;7.15;99.42;100228.69;5003359;28;20061;-58
2021/10/24 08:11:34;;;;;;;7.33;3.63;;;;;;;7.25;98.34;100225.53;5006149;28;20495;-58
2021/10/24 08:14:01;;;;;;;15.40;3.80;;;;;;;7.34;98.07;100215.50;5004417;28;20046;-58
2021/10/24 08:16:26;;;;;;;7.93;4.87;;;;;;;7.41;97.50;100207.13;5013298;28;20030;-55
2021/10/24 08:18:52;;;;;;;4.60;3.87;;;;;;;7.45;97.29;100216.56;5006471;28;20544;-59
2021/10/24 08:21:18;;;;;;;6.07;4.00;;;;;;;7.49;95.23;100212.38;5006533;28;20117;-59
2021/10/24 08:23:44;;;;;;;5.33;3.47;;;;;;;7.54;93.66;100208.22;5007883;28;20156;-56
2021/10/24 08:26:11;;;;;;;4.57;2.87;;;;;;;7.61;94.70;100204.94;5012097;28;20037;-60
2021/10/24 08:28:37;;;;;;;7.33;3.63;;;;;;;7.69;94.30;100203.38;5009216;28;20467;-59
2021/10/24 08:31:03;;;;;;;11.07;4.63;;;;;;;7.92;91.62;100203.78;5016522;28;20128;-60
2021/10/24 08:33:30;;;;;;;6.57;3.43;;;;;;;7.95;90.26;100209.78;5005605;28;20466;-58
2021/10/24 08:36:00;;;;;;;6.17;3.57;;;;;;;8.06;89.91;100199.75;5005579;28;20447;-59
2021/10/24 08:38:29;;;;;;;5.97;3.23;;;;;;;8.07;89.04;100199.78;5004066;28;20453;-59
2021/10/24 08:40:57;;;;;;;8.00;5.13;;;;;;;8.10;89.59;100198.97;5003000;28;20057;-58
2021/10/24 08:43:35;;;;;;;6.33;3.90;;;;;;;8.17;89.89;100199.09;5000879;28;20029;-59
2021/10/24 08:46:01;;;;;;;7.07;4.40;;;;;;;8.29;88.76;100195.88;5001702;28;20041;-59
2021/10/24 08:48:26;;;;;;;4.63;3.13;;;;;;;8.42;88.38;100194.38;5008760;28;20036;-60
2021/10/24 08:50:52;;;;;;;6.73;3.43;;;;;;;8.53;86.40;100197.97;5007387;28;20029;-58
2021/10/24 08:53:23;;;;;;;4.93;3.23;;;;;;;8.66;83.96;100193.03;5008130;28;20035;-58
2021/10/24 08:55:48;;;;;;;6.93;2.90;;;;;;;8.60;82.53;100198.06;5009923;28;20058;-57
2021/10/24 08:58:15;;;;;;;4.27;2.90;;;;;;;8.79;83.60;100193.19;5014880;28;20025;-59
2021/10/24 09:00:41;;;;;;;5.60;2.77;;;;;;;8.86;82.21;100189.88;5006987;28;20048;-57
2021/10/24 09:03:11;;;;;;;3.37;2.90;;;;;;;8.83;81.33;100192.38;5005835;28;20017;-59
2021/10/24 09:05:41;;;;;;;7.97;3.43;;;;;;;9.06;80.18;100196.09;5011989;28;20026;-60
2021/10/24 09:08:09;;;;;;;4.10;3.10;;;;;;;9.25;78.99;100186.97;5011882;28;20428;-59
2021/10/24 09:10:40;;;;;;;5.07;3.20;;;;;;;9.40;79.25;100193.09;5009055;28;20034;-60
2021/10/24 09:13:11;;;;;;;4.27;3.00;;;;;;;9.53;76.12;100192.38;5009750;28;20509;-57
2021/10/24 09:15:44;;;;;;;5.13;2.60;;;;;;;9.66;75.24;100193.38;5005550;28;20571;-58
2021/10/24 09:18:11;;;;;;;5.43;3.13;;;;;;;9.69;73.76;100185.69;5011010;28;20555;-59
2021/10/24 09:20:36;;;;;;;6.67;2.73;;;;;;;9.75;72.64;100182.34;5010069;28;20025;-59
2021/10/24 09:23:07;;;;;;;6.73;3.30;;;;;;;9.96;69.80;100178.28;5008404;28;20021;-57
2021/10/24 09:25:32;;;;;;;8.27;2.87;;;;;;;10.10;69.56;100179.22;5012568;28;20029;-60
2021/10/24 09:28:03;;;;;;;7.23;3.47;;;;;;;10.23;69.79;100177.63;5004674;28;20539;-59
2021/10/24 09:30:34;;;;;;;6.77;2.37;;;;;;;10.26;68.79;100180.25;5005352;28;20029;-58
2021/10/24 09:33:05;;;;;;;5.43;3.07;;;;;;;10.46;67.64;100176.09;5008139;28;20534;-58
2021/10/24 09:35:39;;;;;;;9.02;3.67;;;;;;;10.48;66.74;100171.00;5016455;28;20491;-58
2021/10/24 09:38:22;;;;;;;6.53;3.30;;;;;;;10.51;68.25;100173.56;5008660;28;20144;-58
2021/10/24 09:40:54;;;;;;;4.55;3.40;;;;;;;10.71;67.86;100171.09;4999361;28;20271;-60
2021/10/24 09:43:31;;;;;;;6.65;3.10;;;;;;;10.82;67.38;100167.72;5010246;28;20466;-57
2021/10/24 09:45:56;;;;;;;6.55;2.53;;;;;;;10.85;64.63;100172.03;5013781;28;20069;-59
2021/10/24 09:48:24;;;;;;;6.53;2.40;;;;;;;11.09;61.59;100167.00;5010910;28;20117;-60
2021/10/24 09:50:52;;;;;;;7.30;2.58;;;;;;;11.19;59.34;100163.63;5015262;28;20680;-59
2021/10/24 09:53:22;;;;;;;8.27;2.50;;;;;;;11.20;59.34;100159.34;5007204;28;20430;-61
2021/10/24 09:56:04;;;;;;;8.60;4.00;;;;;;;11.17;59.62;100160.19;5006831;28;20412;-59
2021/10/24 09:58:36;;;;;;;3.83;2.30;;;;;;;11.08;59.11;100154.16;5007092;28;20038;-60
2021/10/24 10:01:03;;;;;;;7.65;3.17;;;;;;;11.10;59.50;100150.75;5016738;28;20380;-61
2021/10/24 10:03:30;;;;;;;7.68;3.20;;;;;;;11.26;59.96;100149.06;5016589;28;20030;-59
2021/10/24 10:05:56;;;;;;;5.07;2.67;;;;;;;11.26;60.06;100146.50;5015141;28;20076;-58
2021/10/24 10:08:22;;;;;;;7.03;2.95;;;;;;;11.22;61.35;100142.22;5008929;28;20127;-58
2021/10/24 10:11:07;;;;;;;6.50;2.70;;;;;;;11.29;60.85;100139.66;5013779;28;20504;-55
2021/10/24 10:13:42;;;;;;;8.60;3.25;;;;;;;11.45;60.25;100135.44;5018283;28;20040;-56
2021/10/24 10:16:12;;;;;;;;;;;;;;;11.56;60.12;100135.44;5018058;28;20140;-57
2021/10/24 10:18:56;;;;;;;3.60;2.92;;;;;;;11.61;59.75;100134.59;5007537;28;19975;-56
2021/10/24 10:21:32;;;;;;;5.80;3.70;;;;;;;11.32;60.96;100139.69;5008837;28;20042;-55
2021/10/24 10:23:59;;;;;;;7.53;3.00;;;;;;;11.35;60.90;100137.13;5010541;28;20034;-57
2021/10/24 10:26:45;;;;;;;6.50;3.03;;;;;;;11.36;61.39;100132.84;5019359;28;20060;-56
2021/10/24 10:29:14;;;;;;;7.72;3.20;;;;;;;11.50;61.08;100133.72;5013332;28;20041;-53
2021/10/24 10:32:00;;;;;;;5.97;2.90;;;;;;;11.68;60.28;100122.59;5013242;28;20030;-58
2021/10/24 10:34:27;;;;;;;6.00;2.90;;;;;;;11.77;61.48;100120.94;5012626;28;20031;-57
2021/10/24 10:36:55;;;;;;;4.80;3.08;;;;;;;11.77;60.16;100118.38;5008356;28;20489;-54
2021/10/24 10:39:36;;;;;;;8.77;3.13;;;;;;;11.94;59.77;100112.34;5010536;28;20291;-53
2021/10/24 10:42:23;;;;;;;5.35;3.00;;;;;;;12.13;58.69;100111.50;5012983;28;20512;-54
2021/10/24 10:45:15;;;;;;;5.15;2.80;;;;;;;12.07;57.99;100114.91;5014505;28;20129;-55
2021/10/24 10:47:57;;;;;;;5.72;2.92;;;;;;;12.02;58.37;100102.91;4986498;28;20125;-55
2021/10/24 10:50:37;;;;;;;5.60;2.75;;;;;;;12.21;58.48;100107.19;4988234;28;20038;-56
2021/10/24 10:53:05;;;;;;;4.82;2.63;;;;;;;12.25;58.69;100101.19;4994216;28;20405;-56
2021/10/24 10:55:56;;;;;;;5.07;2.85;;;;;;;12.27;58.57;100094.31;4985672;28;20519;-57
2021/10/24 10:58:38;;;;;;;5.35;2.80;;;;;;;12.36;57.84;100084.00;4990532;28;20038;-56
2021/10/24 11:01:06;;;;;;;5.10;2.63;;;;;;;12.31;57.74;100083.16;4990426;28;20050;-57
2021/10/24 11:03:48;;;;;;;5.65;3.22;;;;;;;12.49;57.59;100083.09;4996382;28;20544;-56
2021/10/24 11:06:22;;;;;;;3.65;2.33;;;;;;;12.34;56.06;100072.88;4988976;28;20051;-57
2021/10/24 11:08:52;;;;;;;6.10;2.30;;;;;;;12.52;56.44;100070.22;4986965;28;20536;-56
2021/10/24 11:11:45;;;;;;;5.75;2.85;;;;;;;12.49;56.09;100072.81;4985149;28;20135;-58
2021/10/24 11:14:10;;;;;;;4.60;3.40;;;;;;;12.48;56.44;100070.22;4988549;28;20528;-56
2021/10/24 11:16:35;;;;;;;5.20;2.75;;;;;;;12.64;56.54;100070.19;4991624;28;20033;-56
2021/10/24 11:19:05;;;;;;;5.25;2.30;;;;;;;12.79;54.76;100079.53;4994998;28;20125;-53
2021/10/24 11:21:30;;;;;;;4.40;2.10;;;;;;;12.87;53.58;100061.47;4990751;28;20437;-54
2021/10/24 11:23:59;;;;;;;5.43;2.63;;;;;;;13.06;53.25;100063.97;4990021;28;20041;-53
2021/10/24 11:26:25;;;;;;;3.05;2.42;;;;;;;12.99;52.42;100064.00;5013367;28;20037;-56
2021/10/24 11:28:51;;;;;;;4.55;2.47;;;;;;;12.90;53.52;100054.59;5020164;28;20037;-57